createdAt,value
2022-10-09T00:01:37.871Z,100874.50
2022-10-09T00:04:07.771Z,100877.66
2022-10-09T00:06:38.551Z,100876.44
2022-10-09T00:09:06.298Z,100895.69
2022-10-09T00:11:37.373Z,100898.03
2022-10-09T00:14:07.891Z,100896.34
2022-10-09T00:16:35.494Z,100902.44
2022-10-09T00:19:05.423Z,100904.41
2022-10-09T00:21:35.070Z,100902.66
2022-10-09T00:24:05.119Z,100907.41
2022-10-09T00:26:38.792Z,100905.75
2022-10-09T00:29:06.627Z,100917.75
2022-10-09T00:31:34.420Z,100920.88
2022-10-09T00:34:08.582Z,100927.19
2022-10-09T00:36:36.304Z,100927.50
2022-10-09T00:39:04.266Z,100931.00
2022-10-09T00:41:37.093Z,100939.25
2022-10-09T00:44:44.396Z,100932.47
2022-10-09T00:47:21.162Z,100933.50
2022-10-09T00:49:50.687Z,100939.31
2022-10-09T00:52:22.687Z,100939.44
2022-10-09T00:54:50.813Z,100942.47
2022-10-09T00:57:18.621Z,100948.00
2022-10-09T00:59:51.620Z,100950.50
2022-10-09T01:02:19.731Z,100954.63
2022-10-09T01:04:47.525Z,100947.91
2022-10-09T01:07:37.614Z,100955.63
2022-10-09T01:10:18.486Z,100959.16
2022-10-09T01:12:57.965Z,100969.00
2022-10-09T01:15:32.474Z,100969.91
2022-10-09T01:18:10.300Z,100967.50
2022-10-09T01:20:45.665Z,100967.78
2022-10-09T01:23:53.876Z,100976.28
2022-10-09T01:26:36.175Z,100976.81
2022-10-09T01:29:11.962Z,100970.56
2022-10-09T01:31:43.978Z,100975.91
2022-10-09T01:34:17.595Z,100982.78
2022-10-09T01:36:46.152Z,100981.47
2022-10-09T01:39:21.722Z,100982.56
2022-10-09T01:41:52.087Z,100987.78
2022-10-09T01:44:24.852Z,100986.03
2022-10-09T01:46:52.823Z,100994.75
2022-10-09T01:49:35.526Z,100993.47
2022-10-09T01:52:09.723Z,100997.03
2022-10-09T01:54:45.323Z,101008.78
2022-10-09T01:57:17.377Z,101003.09
2022-10-09T01:59:52.945Z,101016.13
2022-10-09T02:02:21.988Z,101006.59
2022-10-09T02:04:52.410Z,101016.81
2022-10-09T02:07:22.694Z,101030.13
2022-10-09T02:09:50.944Z,101033.94
2022-10-09T02:12:21.977Z,101039.06
2022-10-09T02:14:53.005Z,101036.09
2022-10-09T02:17:28.270Z,101037.47
2022-10-09T02:20:02.621Z,101043.72
2022-10-09T02:22:34.445Z,101049.78
2022-10-09T02:25:08.988Z,101058.69
2022-10-09T02:27:39.512Z,101066.75
2022-10-09T02:30:11.975Z,101066.66
2022-10-09T02:32:42.432Z,101065.03
2022-10-09T02:35:10.245Z,101079.91
2022-10-09T02:37:42.080Z,101077.41
2022-10-09T02:40:11.100Z,101087.78
2022-10-09T02:42:39.037Z,101085.31
2022-10-09T02:45:13.215Z,101095.25
2022-10-09T02:47:40.983Z,101093.28
2022-10-09T02:50:11.852Z,101106.25
2022-10-09T02:52:43.805Z,101104.31
2022-10-09T02:55:11.594Z,101102.78
2022-10-09T02:57:39.395Z,101106.97
2022-10-09T03:00:10.092Z,101111.84
2022-10-09T03:02:38.005Z,101114.66
2022-10-09T03:05:06.569Z,101121.59
2022-10-09T03:07:38.483Z,101121.72
2022-10-09T03:10:06.972Z,101120.00
2022-10-09T03:12:34.862Z,101125.13
2022-10-09T03:15:07.142Z,101125.13
2022-10-09T03:17:36.263Z,101123.69
2022-10-09T03:20:04.342Z,101128.88
2022-10-09T03:22:36.812Z,101140.00
2022-10-09T03:25:04.950Z,101137.66
2022-10-09T03:27:32.733Z,101151.53
2022-10-09T03:30:04.538Z,101153.50
2022-10-09T03:32:32.439Z,101145.81
2022-10-09T03:35:01.611Z,101148.22
2022-10-09T03:37:33.513Z,101151.91
2022-10-09T03:40:03.604Z,101159.94
2022-10-09T03:42:31.358Z,101162.59
2022-10-09T03:45:04.998Z,101166.16
2022-10-09T03:47:34.965Z,101166.31
2022-10-09T03:50:04.184Z,101169.75
2022-10-09T03:52:33.760Z,101169.81
2022-10-09T03:55:03.929Z,101174.78
2022-10-09T03:57:31.792Z,101176.69
2022-10-09T04:00:01.452Z,101178.50
2022-10-09T04:02:32.868Z,101175.16
2022-10-09T04:05:00.736Z,101178.63
2022-10-09T04:07:32.073Z,101182.13
2022-10-09T04:10:04.113Z,101184.69
2022-10-09T04:12:31.983Z,101184.59
2022-10-09T04:15:01.955Z,101188.03
2022-10-09T04:17:31.975Z,101190.56
2022-10-09T04:19:59.916Z,101201.03
2022-10-09T04:22:31.218Z,101203.00
2022-10-09T04:25:01.244Z,101202.00
2022-10-09T04:27:29.205Z,101204.63
2022-10-09T04:29:57.051Z,101207.53
2022-10-09T04:32:27.011Z,101220.44
2022-10-09T04:34:54.746Z,101224.84
2022-10-09T04:37:24.393Z,101222.81
2022-10-09T04:39:55.427Z,101233.00
2022-10-09T04:42:23.208Z,101228.66
2022-10-09T04:44:52.812Z,101236.41
2022-10-09T04:47:22.746Z,101240.09
2022-10-09T04:49:50.730Z,101248.56
2022-10-09T04:52:20.325Z,101254.72
2022-10-09T04:54:50.277Z,101266.03
2022-10-09T04:57:19.373Z,101269.38
2022-10-09T04:59:49.037Z,101276.31
2022-10-09T05:02:19.118Z,101277.34
2022-10-09T05:04:48.116Z,101274.81
2022-10-09T05:07:17.766Z,101272.22
2022-10-09T05:09:47.708Z,101278.16
2022-10-09T05:12:15.548Z,101279.91
2022-10-09T05:14:44.851Z,101282.56
2022-10-09T05:17:15.187Z,101293.84
2022-10-09T05:19:43.446Z,101289.63
2022-10-09T05:22:13.156Z,101292.13
2022-10-09T05:24:41.125Z,101288.50
2022-10-09T05:27:08.937Z,101281.56
2022-10-09T05:29:38.621Z,101286.81
2022-10-09T05:32:09.977Z,101291.97
2022-10-09T05:34:37.792Z,101291.94
2022-10-09T05:37:07.407Z,101297.97
2022-10-09T05:39:35.970Z,101296.25
2022-10-09T05:42:03.800Z,101300.53
2022-10-09T05:44:31.656Z,101303.16
2022-10-09T05:46:59.498Z,101297.91
2022-10-09T05:49:28.883Z,101302.94
2022-10-09T05:51:57.058Z,101315.00
2022-10-09T05:54:24.837Z,101310.00
2022-10-09T05:56:54.795Z,101314.31
2022-10-09T05:59:22.582Z,101321.19
2022-10-09T06:01:52.178Z,101323.81
2022-10-09T06:04:26.672Z,101322.88
2022-10-09T06:06:56.570Z,101341.00
2022-10-09T06:09:26.175Z,101343.53
2022-10-09T06:11:55.807Z,101342.66
2022-10-09T06:14:26.127Z,101345.88
2022-10-09T06:16:54.000Z,101344.72
2022-10-09T06:19:24.927Z,101352.25
2022-10-09T06:21:56.295Z,101357.19
2022-10-09T06:24:29.334Z,101355.94
2022-10-09T06:26:59.526Z,101356.41
2022-10-09T06:29:32.005Z,101363.84
2022-10-09T06:31:59.767Z,101360.84
2022-10-09T06:34:27.536Z,101368.28
2022-10-09T06:37:00.321Z,101370.59
2022-10-09T06:39:28.094Z,101364.94
2022-10-09T06:41:55.783Z,101369.91
2022-10-09T06:44:27.576Z,101378.03
2022-10-09T06:46:55.274Z,101373.19
2022-10-09T06:49:23.012Z,101376.41
2022-10-09T06:51:54.918Z,101378.53
2022-10-09T06:54:24.217Z,101387.06
2022-10-09T06:56:51.990Z,101387.78
2022-10-09T06:59:23.965Z,101394.84
2022-10-09T07:01:51.980Z,101400.16
2022-10-09T07:04:19.839Z,101396.31
2022-10-09T07:06:50.012Z,101402.84
2022-10-09T07:09:20.865Z,101408.88
2022-10-09T07:11:50.211Z,101405.50
2022-10-09T07:14:20.060Z,101412.91
2022-10-09T07:16:50.397Z,101417.06
2022-10-09T07:19:20.033Z,101416.75
2022-10-09T07:21:49.946Z,101422.78
2022-10-09T07:24:21.391Z,101423.28
2022-10-09T07:26:50.562Z,101422.16
2022-10-09T07:29:22.330Z,101424.28
2022-10-09T07:31:52.293Z,101417.75
2022-10-09T07:34:20.078Z,101419.91
2022-10-09T07:36:49.833Z,101427.09
2022-10-09T07:39:20.421Z,101436.66
2022-10-09T07:41:50.484Z,101440.66
2022-10-09T07:44:21.769Z,101436.75
2022-10-09T07:46:52.572Z,101441.00
2022-10-09T07:49:20.503Z,101447.88
2022-10-09T07:51:50.243Z,101454.75
2022-10-09T07:54:20.182Z,101460.47
2022-10-09T07:56:47.953Z,101463.84
2022-10-09T07:59:19.528Z,101465.84
2022-10-09T08:01:50.605Z,101470.53
2022-10-09T08:04:18.657Z,101470.09
2022-10-09T08:06:48.436Z,101474.38
2022-10-09T08:09:19.245Z,101472.78
2022-10-09T08:11:46.995Z,101474.13
2022-10-09T08:14:19.301Z,101484.94
2022-10-09T08:16:49.694Z,101474.13
2022-10-09T08:19:17.653Z,101479.09
2022-10-09T08:21:45.483Z,101489.69
2022-10-09T08:24:13.468Z,101487.75
2022-10-09T08:26:42.530Z,101482.41
2022-10-09T08:29:13.883Z,101488.78
2022-10-09T08:31:44.214Z,101490.72
2022-10-09T08:34:13.411Z,101488.47
2022-10-09T08:36:47.638Z,101488.75
2022-10-09T08:39:15.617Z,101492.63
2022-10-09T08:41:45.950Z,101498.19
2022-10-09T08:44:23.840Z,101491.66
2022-10-09T08:46:58.498Z,101489.75
2022-10-09T08:49:36.129Z,101489.88
2022-10-09T08:52:25.971Z,101489.38
2022-10-09T08:54:57.107Z,101488.75
2022-10-09T08:57:30.945Z,101488.03
2022-10-09T09:00:03.786Z,101487.91
2022-10-09T09:02:42.953Z,101502.38
2022-10-09T09:05:28.570Z,101500.56
2022-10-09T09:08:03.970Z,101509.50
2022-10-09T09:10:43.623Z,101509.75
2022-10-09T09:13:36.210Z,101507.94
2022-10-09T09:16:15.133Z,101510.06
2022-10-09T09:18:50.512Z,101509.56
2022-10-09T09:21:38.772Z,101512.78
2022-10-09T09:24:15.053Z,101512.09
2022-10-09T09:26:48.714Z,101516.19
2022-10-09T09:29:22.693Z,101507.84
2022-10-09T09:31:58.594Z,101512.69
2022-10-09T09:34:34.784Z,101515.94
2022-10-09T09:37:06.139Z,101517.50
2022-10-09T09:40:24.130Z,101515.09
2022-10-09T09:42:25.922Z,101520.59
2022-10-09T09:45:00.360Z,101520.31
2022-10-09T09:47:35.789Z,101531.94
2022-10-09T09:50:06.294Z,101525.78
2022-10-09T09:52:40.393Z,101531.06
2022-10-09T09:55:08.826Z,101530.09
2022-10-09T09:57:43.597Z,101534.28
2022-10-09T10:00:21.156Z,101532.19
2022-10-09T10:02:49.808Z,101531.28
2022-10-09T10:05:23.586Z,101535.09
2022-10-09T10:07:59.577Z,101543.50
2022-10-09T10:10:28.503Z,101538.00
2022-10-09T10:13:03.471Z,101536.50
2022-10-09T10:15:32.927Z,101539.84
2022-10-09T10:18:07.329Z,101533.56
2022-10-09T10:20:45.231Z,101543.34
2022-10-09T10:23:34.297Z,101546.47
2022-10-09T10:26:08.123Z,101541.66
2022-10-09T10:28:42.564Z,101539.41
2022-10-09T10:31:19.792Z,101536.78
2022-10-09T10:33:57.535Z,101528.56
2022-10-09T10:36:29.497Z,101539.03
2022-10-09T10:39:07.782Z,101533.88
2022-10-09T10:41:42.670Z,101531.47
2022-10-09T10:44:24.142Z,101518.97
2022-10-09T10:46:56.024Z,101516.06
2022-10-09T10:49:24.603Z,101532.72
2022-10-09T10:52:06.786Z,101535.25
2022-10-09T10:54:40.469Z,101524.84
2022-10-09T10:57:24.822Z,101542.69
2022-10-09T11:00:04.191Z,101535.28
2022-10-09T11:03:07.466Z,101538.75
2022-10-09T11:05:51.760Z,101530.00
2022-10-09T11:08:34.553Z,101525.28
2022-10-09T11:11:12.144Z,101530.41
2022-10-09T11:13:50.291Z,101526.00
2022-10-09T11:16:36.402Z,101529.31
2022-10-09T11:19:45.453Z,101536.19
2022-10-09T11:22:28.305Z,101533.91
2022-10-09T11:25:09.376Z,101537.78
2022-10-09T11:27:45.397Z,101536.16
2022-10-09T11:30:15.732Z,101542.03
2022-10-09T11:32:52.456Z,101547.47
2022-10-09T11:35:23.140Z,101550.78
2022-10-09T11:37:58.920Z,101554.34
2022-10-09T11:40:30.808Z,101551.47
2022-10-09T11:43:15.983Z,101549.13
2022-10-09T11:45:51.112Z,101542.81
2022-10-09T11:48:29.083Z,101527.66
2022-10-09T11:51:06.706Z,101526.50
2022-10-09T11:53:36.998Z,101530.34
2022-10-09T11:56:11.523Z,101521.25
2022-10-09T11:58:40.654Z,101515.06
2022-10-09T12:01:26.548Z,101508.09
2022-10-09T12:04:03.170Z,101513.38
2022-10-09T12:06:35.982Z,101514.88
2022-10-09T12:09:08.650Z,101515.31
2022-10-09T12:11:40.488Z,101517.25
2022-10-09T12:14:13.171Z,101509.97
2022-10-09T12:16:48.116Z,101514.00
2022-10-09T12:19:20.854Z,101515.44
2022-10-09T12:21:53.263Z,101513.56
2022-10-09T12:24:24.281Z,101512.16
2022-10-09T12:26:59.680Z,101514.88
2022-10-09T12:29:33.129Z,101517.75
2022-10-09T12:32:09.326Z,101509.28
2022-10-09T12:34:42.507Z,101512.69
2022-10-09T12:37:17.047Z,101508.03
2022-10-09T12:39:46.017Z,101508.63
2022-10-09T12:42:25.573Z,101509.56
2022-10-09T12:44:56.772Z,101502.69
2022-10-09T12:47:28.979Z,101514.38
2022-10-09T12:49:58.454Z,101518.03
2022-10-09T12:52:29.014Z,101516.09
2022-10-09T12:54:59.012Z,101522.97
2022-10-09T12:57:28.100Z,101522.78
2022-10-09T12:59:59.753Z,101523.03
2022-10-09T13:02:29.698Z,101513.69
2022-10-09T13:05:00.233Z,101520.72
2022-10-09T13:07:28.983Z,101522.50
2022-10-09T13:10:02.239Z,101535.97
2022-10-09T13:12:32.739Z,101529.28
2022-10-09T13:15:02.835Z,101526.81
2022-10-09T13:17:33.590Z,101533.03
2022-10-09T13:20:04.975Z,101535.81
2022-10-09T13:22:35.145Z,101528.56
2022-10-09T13:25:04.148Z,101530.34
2022-10-09T13:27:36.178Z,101523.75
2022-10-09T13:30:06.647Z,101520.81
2022-10-09T13:32:34.187Z,101522.34
2022-10-09T13:35:02.281Z,101526.38
2022-10-09T13:37:30.195Z,101524.84
2022-10-09T13:39:59.889Z,101520.75
2022-10-09T13:42:34.603Z,101523.91
2022-10-09T13:45:02.426Z,101523.72
2022-10-09T13:47:31.853Z,101523.59
2022-10-09T13:50:01.520Z,101517.09
2022-10-09T13:52:29.374Z,101520.44
2022-10-09T13:54:59.487Z,101523.44
2022-10-09T13:57:29.204Z,101527.75
2022-10-09T13:59:57.028Z,101527.19
2022-10-09T14:02:27.060Z,101532.44
2022-10-09T14:04:56.382Z,101530.66
2022-10-09T14:07:24.133Z,101535.63
2022-10-09T14:09:54.140Z,101529.31
2022-10-09T14:12:22.081Z,101536.13
2022-10-09T14:14:49.840Z,101547.56
2022-10-09T14:17:19.896Z,101536.78
2022-10-09T14:19:50.220Z,101540.94
2022-10-09T14:22:19.601Z,101540.94
2022-10-09T14:24:49.513Z,101546.44
2022-10-09T14:27:19.170Z,101543.56
2022-10-09T14:29:48.192Z,101547.34
2022-10-09T14:32:16.062Z,101541.56
2022-10-09T14:34:43.883Z,101538.09
2022-10-09T14:37:23.724Z,101539.56
2022-10-09T14:39:59.414Z,101541.38
2022-10-09T14:42:27.183Z,101541.53
2022-10-09T14:44:55.305Z,101534.00
2022-10-09T14:47:27.184Z,101539.97
2022-10-09T14:49:54.922Z,101539.81
2022-10-09T14:52:22.696Z,101544.91
2022-10-09T14:54:54.565Z,101544.13
2022-10-09T14:57:23.715Z,101538.44
2022-10-09T14:59:51.521Z,101548.84
2022-10-09T15:02:23.405Z,101546.13
2022-10-09T15:04:51.202Z,101547.84
2022-10-09T15:07:18.981Z,101550.00
2022-10-09T15:09:49.040Z,101545.34
2022-10-09T15:12:16.842Z,101540.88
2022-10-09T15:14:45.953Z,101540.75
2022-10-09T15:17:14.139Z,101540.53
2022-10-09T15:19:41.900Z,101551.41
2022-10-09T15:22:09.714Z,101547.28
2022-10-09T15:24:37.642Z,101537.81
2022-10-09T15:27:06.463Z,101546.34
2022-10-09T15:29:34.156Z,101540.50
2022-10-09T15:32:04.936Z,101543.69
2022-10-09T15:34:33.059Z,101546.09
2022-10-09T15:37:01.351Z,101555.38
2022-10-09T15:39:29.454Z,101558.16
2022-10-09T15:41:57.247Z,101569.94
2022-10-09T15:44:25.031Z,101559.94
2022-10-09T15:46:52.961Z,101560.16
2022-10-09T15:49:22.203Z,101560.69
2022-10-09T15:51:50.145Z,101561.78
2022-10-09T15:54:22.075Z,101567.03
2022-10-09T15:56:50.019Z,101579.19
2022-10-09T15:59:17.982Z,101571.59
2022-10-09T16:01:51.691Z,101574.88
2022-10-09T16:04:19.484Z,101573.50
2022-10-09T16:06:48.633Z,101577.88
2022-10-09T16:09:20.517Z,101582.09
2022-10-09T16:11:48.340Z,101580.59
2022-10-09T16:14:16.075Z,101581.19
2022-10-09T16:16:46.039Z,101582.34
2022-10-09T16:19:13.890Z,101578.16
2022-10-09T16:21:41.726Z,101581.47
2022-10-09T16:24:14.659Z,101578.41
2022-10-09T16:26:42.567Z,101582.66
2022-10-09T16:29:11.650Z,101580.84
2022-10-09T16:31:43.573Z,101586.28
2022-10-09T16:34:11.362Z,101592.84
2022-10-09T16:36:39.270Z,101594.16
2022-10-09T16:39:07.206Z,101594.25
2022-10-09T16:41:41.076Z,101602.88
2022-10-09T16:44:15.967Z,101601.53
2022-10-09T16:46:43.776Z,101602.56
2022-10-09T16:49:19.883Z,101601.66
2022-10-09T16:51:49.635Z,101602.81
2022-10-09T16:54:17.553Z,101592.91
2022-10-09T16:56:46.695Z,101593.53
2022-10-09T16:59:16.764Z,101591.53
2022-10-09T17:01:46.432Z,101596.41
2022-10-09T17:04:14.971Z,101590.22
2022-10-09T17:06:46.875Z,101589.72
2022-10-09T17:09:14.894Z,101595.19
2022-10-09T17:11:43.686Z,101592.88
2022-10-09T17:14:13.867Z,101596.06
2022-10-09T17:16:43.970Z,101583.69
2022-10-09T17:19:12.122Z,101581.97
2022-10-09T17:21:40.286Z,101588.59
2022-10-09T17:24:09.071Z,101594.50
2022-10-09T17:26:37.049Z,101592.53
2022-10-09T17:29:05.794Z,101592.94
2022-10-09T17:31:35.468Z,101587.03
2022-10-09T17:34:04.868Z,101591.56
2022-10-09T17:36:37.514Z,101582.03
2022-10-09T17:39:06.719Z,101588.22
2022-10-09T17:41:34.987Z,101588.16
2022-10-09T17:44:02.992Z,101594.22
2022-10-09T17:46:32.181Z,101591.13
2022-10-09T17:49:01.696Z,101597.63
2022-10-09T17:51:33.662Z,101585.59
2022-10-09T17:54:04.919Z,101598.72
2022-10-09T17:56:35.020Z,101596.56
2022-10-09T17:59:05.099Z,101593.69
2022-10-09T18:01:33.477Z,101599.91
2022-10-09T18:04:03.063Z,101597.19
2022-10-09T18:06:36.236Z,101596.19
2022-10-09T18:09:06.850Z,101599.28
2022-10-09T18:11:37.267Z,101603.19
2022-10-09T18:14:05.553Z,101603.31
2022-10-09T18:16:39.961Z,101602.34
2022-10-09T18:19:13.544Z,101597.34
2022-10-09T18:21:46.518Z,101609.81
2022-10-09T18:24:15.189Z,101609.22
2022-10-09T18:26:44.523Z,101606.97
2022-10-09T18:29:15.115Z,101604.38
2022-10-09T18:31:50.412Z,101609.53
2022-10-09T18:34:20.044Z,101608.63
2022-10-09T18:36:48.056Z,101606.91
2022-10-09T18:39:16.209Z,101609.66
2022-10-09T18:41:47.256Z,101614.28
2022-10-09T18:44:19.488Z,101610.50
2022-10-09T18:46:52.500Z,101623.00
2022-10-09T18:49:28.699Z,101620.69
2022-10-09T18:52:00.342Z,101624.50
2022-10-09T18:54:30.629Z,101609.50
2022-10-09T18:56:59.215Z,101615.56
2022-10-09T18:59:30.287Z,101613.75
2022-10-09T19:02:01.564Z,101617.22
2022-10-09T19:04:31.217Z,101612.63
2022-10-09T19:07:02.143Z,101611.41
2022-10-09T19:09:32.742Z,101615.88
2022-10-09T19:12:00.830Z,101614.38
2022-10-09T19:14:31.415Z,101607.50
2022-10-09T19:17:02.187Z,101611.84
2022-10-09T19:19:32.144Z,101602.13
2022-10-09T19:22:00.406Z,101603.91
2022-10-09T19:24:34.198Z,101612.03
2022-10-09T19:27:06.155Z,101607.69
2022-10-09T19:29:37.978Z,101614.06
2022-10-09T19:32:08.296Z,101611.47
2022-10-09T19:34:37.723Z,101610.75
2022-10-09T19:37:06.710Z,101610.59
2022-10-09T19:39:37.595Z,101606.63
2022-10-09T19:42:06.006Z,101615.13
2022-10-09T19:44:34.398Z,101606.69
2022-10-09T19:47:03.778Z,101614.16
2022-10-09T19:49:32.477Z,101615.97
2022-10-09T19:52:01.871Z,101622.78
2022-10-09T19:54:29.833Z,101616.25
2022-10-09T19:56:57.783Z,101622.22
2022-10-09T19:59:25.679Z,101615.63
2022-10-09T20:01:57.613Z,101624.72
2022-10-09T20:04:25.739Z,101619.44
2022-10-09T20:06:53.577Z,101612.84
2022-10-09T20:09:22.855Z,101624.34
2022-10-09T20:11:51.183Z,101618.75
2022-10-09T20:14:18.920Z,101615.03
2022-10-09T20:16:48.783Z,101626.84
2022-10-09T20:19:18.819Z,101620.66
2022-10-09T20:21:46.987Z,101623.44
2022-10-09T20:24:16.786Z,101617.91
2022-10-09T20:26:47.736Z,101628.44
2022-10-09T20:29:15.541Z,101625.50
2022-10-09T20:31:43.526Z,101627.13
2022-10-09T20:34:11.388Z,101627.91
2022-10-09T20:36:40.113Z,101629.84
2022-10-09T20:39:10.012Z,101627.50
2022-10-09T20:41:38.902Z,101627.16
2022-10-09T20:44:08.271Z,101621.28
2022-10-09T20:46:39.152Z,101625.88
2022-10-09T20:49:08.607Z,101628.25
2022-10-09T20:51:36.765Z,101629.16
2022-10-09T20:54:05.644Z,101627.19
2022-10-09T20:56:34.087Z,101622.00
2022-10-09T20:59:02.644Z,101622.34
2022-10-09T21:01:35.733Z,101621.16
2022-10-09T21:04:04.659Z,101627.25
2022-10-09T21:06:32.802Z,101619.22
2022-10-09T21:09:02.764Z,101617.88
2022-10-09T21:11:32.021Z,101612.53
2022-10-09T21:13:59.963Z,101613.03
2022-10-09T21:16:27.953Z,101616.63
2022-10-09T21:18:59.340Z,101622.00
2022-10-09T21:21:28.391Z,101615.94
2022-10-09T21:24:01.946Z,101619.75
2022-10-09T21:26:31.486Z,101620.19
2022-10-09T21:29:01.531Z,101616.41
2022-10-09T21:31:31.767Z,101617.75
2022-10-09T21:34:02.001Z,101620.50
2022-10-09T21:37:02.138Z,101621.63
2022-10-09T21:39:31.896Z,101616.84
2022-10-09T21:42:01.938Z,101626.50
2022-10-09T21:44:30.121Z,101625.69
2022-10-09T21:46:57.989Z,101634.56
2022-10-09T21:49:31.281Z,101637.28
2022-10-09T21:51:59.033Z,101640.00
2022-10-09T21:54:27.348Z,101634.28
2022-10-09T21:56:57.479Z,101632.78
2022-10-09T21:59:27.370Z,101633.78
2022-10-09T22:01:55.281Z,101630.03
2022-10-09T22:04:25.332Z,101630.03
2022-10-09T22:06:56.648Z,101630.84
2022-10-09T22:09:24.408Z,101629.81
2022-10-09T22:11:54.029Z,101613.09
2022-10-09T22:14:25.805Z,101618.44
2022-10-09T22:16:53.551Z,101615.59
2022-10-09T22:19:21.365Z,101614.88
2022-10-09T22:21:53.254Z,101606.56
2022-10-09T22:24:25.875Z,101613.63
2022-10-09T22:26:59.032Z,101607.13
2022-10-09T22:29:31.185Z,101607.88
2022-10-09T22:31:59.075Z,101605.06
2022-10-09T22:34:29.153Z,101602.25
2022-10-09T22:36:59.020Z,101603.94
2022-10-09T22:39:28.189Z,101603.81
2022-10-09T22:41:56.103Z,101601.34
2022-10-09T22:44:26.014Z,101600.59
2022-10-09T22:46:53.764Z,101593.78
2022-10-09T22:49:23.393Z,101600.44
2022-10-09T22:51:51.305Z,101597.28
2022-10-09T22:54:19.196Z,101599.28
2022-10-09T22:56:50.188Z,101602.13
2022-10-09T22:59:20.245Z,101604.88
2022-10-09T23:01:53.289Z,101604.34
2022-10-09T23:04:24.375Z,101604.00
2022-10-09T23:06:53.903Z,101605.81
2022-10-09T23:09:25.320Z,101598.03
2022-10-09T23:11:55.560Z,101603.91
2022-10-09T23:14:23.504Z,101605.06
2022-10-09T23:16:53.575Z,101606.25
2022-10-09T23:19:23.491Z,101598.63
2022-10-09T23:21:51.242Z,101603.72
2022-10-09T23:24:20.806Z,101611.66
2022-10-09T23:26:51.910Z,101602.81
2022-10-09T23:29:24.433Z,101611.47
2022-10-09T23:31:54.639Z,101609.31
2022-10-09T23:34:22.461Z,101602.09
2022-10-09T23:36:52.172Z,101609.22
2022-10-09T23:39:22.000Z,101615.25
2022-10-09T23:41:49.784Z,101612.84
2022-10-09T23:44:22.177Z,101613.59
2022-10-09T23:46:53.380Z,101615.81
2022-10-09T23:49:23.308Z,101609.88
2022-10-09T23:51:51.366Z,101609.44
2022-10-09T23:54:21.929Z,101607.72
2022-10-09T23:56:49.576Z,101606.13
2022-10-09T23:59:17.336Z,101598.31
